TimeEST,TemperatureF,Dew PointF,Humidity,Sea Level PressureIn,VisibilityMPH,Wind Direction,Wind SpeedMPH,Gust SpeedMPH,PrecipitationIn,Events,Conditions,WindDirDegrees,DateUTC
5:53 AM,78.8,73.4,83,29.98,6.2,NE,5.8,-,N/A,,Partly Cloudy,40,2014-02-09 10:53:00
6:53 AM,78.8,73.4,83,30.01,6.2,NE,5.8,-,N/A,,Scattered Clouds,40,2014-02-09 11:53:00
7:00 AM,78,74,84,30.01,6,NE,6.9,,,,Partly Cloudy,40,2014-02-09 12:00:00
7:51 AM,78.8,73.4,83,30.01,6.2,East,6.9,-,N/A,,Partly Cloudy,80,2014-02-09 12:51:00
8:52 AM,80.6,73.4,79,30.01,6.2,East,10.4,-,N/A,,Partly Cloudy,80,2014-02-09 13:52:00
9:50 AM,82.4,73.4,74,30.04,6.2,ENE,9.2,-,N/A,,Partly Cloudy,70,2014-02-09 14:50:00
10:50 AM,84.2,73.4,70,30.04,6.2,ESE,6.9,-,N/A,,Partly Cloudy,110,2014-02-09 15:50:00
11:50 AM,82.4,75.2,79,30.04,6.2,SE,9.2,-,N/A,,Scattered Clouds,140,2014-02-09 16:50:00
12:50 PM,84.2,75.2,74,30.01,6.2,SSE,10.4,-,N/A,,Scattered Clouds,150,2014-02-09 17:50:00
1:00 PM,84,75,68,30.01,6,SSE,10.4,,,,Partly Cloudy,150,2014-02-09 18:00:00
2:00 PM,82.4,73.4,74,29.98,6.2,ENE,5.8,-,N/A,,Partly Cloudy,70,2014-02-09 19:00:00
3:00 PM,84.2,71.6,66,29.95,6.2,SE,8.1,-,N/A,,Partly Cloudy,140,2014-02-09 20:00:00
4:00 PM,82.4,75.2,79,29.95,6.2,NE,8.1,-,N/A,,Partly Cloudy,40,2014-02-09 21:00:00
5:00 PM,82.4,73.4,74,29.95,6.2,ENE,4.6,-,N/A,,Partly Cloudy,60,2014-02-09 22:00:00
6:00 PM,80.6,73.4,79,29.98,6.2,NE,9.2,-,N/A,,Scattered Clouds,50,2014-02-09 23:00:00
7:00 PM,80,73,75,29.99,6,NE,6.9,,,,Scattered Clouds,50,2014-02-10 00:00:00
7:00 PM,80.6,73.4,79,29.98,6.2,NE,6.9,-,N/A,,Partly Cloudy,50,2014-02-10 00:00:00
8:00 PM,78.8,73.4,83,30.01,6.2,NE,3.5,-,N/A,,Partly Cloudy,50,2014-02-10 01:00:00
9:00 PM,78.8,73.4,83,30.01,6.2,ENE,4.6,-,N/A,,Partly Cloudy,60,2014-02-10 02:00:00
10:00 PM,78.8,73.4,83,30.01,6.2,NE,4.6,-,N/A,,Partly Cloudy,50,2014-02-10 03:00:00